Time;durP1;ratioP1;P1;durP2;ratioP2;P2;SDS_P1;SDS_P2;PMS_P1;PMS_P2;Temp;Humidity;BMP_temperature;BMP_pressure;BME280_temperature;BME280_humidity;BME280_pressure;Samples;Min_cycle;Max_cycle;Signal;HPM_P1;HPM_P2
2023/09/05 00:00:19;;;;;;;8.48;6.07;;;15.80;92.60;;;;;;5033781;28;20122;-47
2023/09/05 00:02:48;;;;;;;7.53;5.95;;;15.80;92.60;;;;;;5035121;28;20061;-45
2023/09/05 00:05:18;;;;;;;6.93;6.22;;;15.80;92.70;;;;;;5036105;28;20040;-47
2023/09/05 00:07:45;;;;;;;6.55;5.85;;;15.80;92.70;;;;;;5040511;28;20514;-45
2023/09/05 00:10:12;;;;;;;8.27;6.00;;;15.80;92.70;;;;;;5033450;28;20406;-45
2023/09/05 00:12:41;;;;;;;6.38;5.78;;;15.80;92.70;;;;;;5033210;28;20033;-47
2023/09/05 00:15:10;;;;;;;6.40;5.80;;;15.80;92.80;;;;;;5033648;28;20115;-47
2023/09/05 00:17:38;;;;;;;9.18;6.82;;;15.80;92.70;;;;;;5033401;28;20077;-49
2023/09/05 00:20:08;;;;;;;6.97;6.28;;;15.70;92.70;;;;;;5015636;28;20061;-45
2023/09/05 00:22:34;;;;;;;;;;;15.70;92.70;;;;;;5053466;28;20037;-45
2023/09/05 00:25:01;;;;;;;6.70;6.00;;;15.70;92.70;;;;;;5053035;28;20296;-46
2023/09/05 00:27:28;;;;;;;7.50;6.65;;;15.70;92.80;;;;;;5053046;28;20116;-46
2023/09/05 00:29:59;;;;;;;6.53;5.85;;;15.70;92.90;;;;;;5052987;28;20517;-45
2023/09/05 00:32:26;;;;;;;7.28;6.57;;;15.70;92.90;;;;;;5052512;28;20035;-46
2023/09/05 00:34:53;;;;;;;9.77;5.65;;;15.60;92.80;;;;;;5035192;28;20427;-47
2023/09/05 00:37:23;;;;;;;6.75;6.15;;;15.60;92.80;;;;;;5052502;28;20111;-46
2023/09/05 00:39:50;;;;;;;6.82;5.95;;;15.60;92.80;;;;;;5026285;28;20351;-44
2023/09/05 00:42:19;;;;;;;7.03;6.35;;;15.60;92.80;;;;;;5015673;28;20086;-45
2023/09/05 00:44:49;;;;;;;7.47;6.78;;;15.60;92.80;;;;;;5015472;28;20033;-44
2023/09/05 00:47:22;;;;;;;7.18;6.47;;;15.50;92.80;;;;;;5032816;28;20121;-49
2023/09/05 00:49:49;;;;;;;8.27;6.70;;;15.50;92.80;;;;;;5023211;28;20359;-44
2023/09/05 00:52:17;;;;;;;9.85;7.00;;;15.50;92.80;;;;;;5013421;28;20041;-44
2023/09/05 00:54:44;;;;;;;7.70;6.40;;;15.60;92.80;;;;;;5012923;28;20107;-45
2023/09/05 00:57:14;;;;;;;8.75;6.68;;;15.50;92.70;;;;;;5013183;28;20352;-47
2023/09/05 00:59:42;;;;;;;9.57;7.22;;;15.50;92.80;;;;;;4995206;28;20026;-44
2023/09/05 01:02:12;;;;;;;11.60;7.13;;;15.40;92.70;;;;;;4995918;28;20083;-46
2023/09/05 01:04:41;;;;;;;8.85;6.97;;;15.40;92.70;;;;;;4995823;28;20051;-47
2023/09/05 01:07:27;;;;;;;10.30;6.70;;;15.40;92.70;;;;;;5012844;28;20029;-47
2023/09/05 01:10:17;;;;;;;12.45;6.45;;;15.40;92.60;;;;;;5012605;28;20021;-46
2023/09/05 01:12:44;;;;;;;8.48;6.63;;;15.40;92.70;;;;;;5021544;28;20039;-46
2023/09/05 01:15:12;;;;;;;7.13;6.18;;;15.30;92.60;;;;;;5032566;28;20079;-49
2023/09/05 01:17:39;;;;;;;7.15;5.68;;;15.30;92.60;;;;;;5032665;28;20141;-45
2023/09/05 01:20:07;;;;;;;8.50;5.50;;;15.30;92.60;;;;;;5029603;28;20146;-45
2023/09/05 01:23:09;;;;;;;9.13;5.90;;;15.20;92.50;;;;;;4995601;28;20109;-47
2023/09/05 01:25:34;;;;;;;9.85;6.80;;;15.20;92.50;;;;;;5010978;28;20034;-44
2023/09/05 01:28:04;;;;;;;8.80;6.68;;;15.20;92.50;;;;;;5012792;28;20044;-44
2023/09/05 01:30:30;;;;;;;8.70;6.13;;;15.10;92.50;;;;;;5012388;28;20033;-44
2023/09/05 01:32:58;;;;;;;8.07;5.85;;;15.10;92.50;;;;;;5012523;28;20029;-46
2023/09/05 01:35:25;;;;;;;8.63;6.70;;;15.10;92.40;;;;;;5012326;28;20026;-45
2023/09/05 01:37:51;;;;;;;8.05;6.22;;;15.10;92.40;;;;;;4994786;28;20025;-44
2023/09/05 01:40:23;;;;;;;12.35;6.65;;;15.00;92.50;;;;;;5012581;28;20057;-46
2023/09/05 01:42:49;;;;;;;8.57;6.30;;;14.90;92.40;;;;;;5012019;28;20030;-48
2023/09/05 01:45:16;;;;;;;13.38;6.38;;;14.90;92.40;;;;;;5015314;28;20025;-45
2023/09/05 01:47:42;;;;;;;7.07;6.38;;;14.90;92.40;;;;;;5032024;28;20114;-50
2023/09/05 01:50:09;;;;;;;8.27;6.28;;;14.90;92.40;;;;;;5044235;28;20077;-48
2023/09/05 01:52:36;;;;;;;10.35;6.22;;;14.90;92.40;;;;;;5017215;28;20481;-43
2023/09/05 01:55:04;;;;;;;7.65;5.85;;;14.80;92.40;;;;;;5014109;28;20190;-48
2023/09/05 01:57:32;;;;;;;6.95;6.00;;;14.80;92.30;;;;;;5031806;28;20049;-49
2023/09/05 01:59:58;;;;;;;6.93;6.22;;;14.80;92.30;;;;;;5014441;28;20026;-46
2023/09/05 02:02:25;;;;;;;9.52;6.60;;;14.80;92.40;;;;;;5014164;28;20040;-50
2023/09/05 02:04:51;;;;;;;7.35;6.22;;;14.80;92.30;;;;;;5024413;28;20068;-45
2023/09/05 02:07:18;;;;;;;6.57;5.88;;;14.70;92.40;;;;;;5051586;28;20021;-47
2023/09/05 02:09:48;;;;;;;8.38;6.32;;;14.70;92.40;;;;;;5051781;28;20033;-47
2023/09/05 02:12:14;;;;;;;7.55;6.45;;;14.70;92.30;;;;;;5051456;28;20104;-48
2023/09/05 02:14:47;;;;;;;8.23;7.25;;;14.70;92.40;;;;;;5037597;28;20033;-46
2023/09/05 02:17:18;;;;;;;8.68;7.25;;;14.70;92.30;;;;;;5031621;28;20488;-47
2023/09/05 02:19:46;;;;;;;7.45;6.70;;;14.60;92.20;;;;;;5031549;28;20075;-44
2023/09/05 02:22:16;;;;;;;8.90;6.70;;;14.60;92.30;;;;;;5031476;28;20111;-47
2023/09/05 02:24:42;;;;;;;8.55;6.75;;;14.60;92.20;;;;;;5031732;28;20033;-45
2023/09/05 02:27:09;;;;;;;10.07;7.70;;;14.60;92.20;;;;;;5031870;28;20108;-45
2023/09/05 02:29:38;;;;;;;9.95;6.78;;;14.50;92.10;;;;;;5031524;28;20032;-43
2023/09/05 02:32:07;;;;;;;7.68;6.65;;;14.50;92.20;;;;;;5016901;28;20442;-43
2023/09/05 02:34:35;;;;;;;7.65;6.60;;;14.50;92.20;;;;;;5051147;28;20053;-47
2023/09/05 02:37:04;;;;;;;10.57;7.35;;;14.50;92.20;;;;;;5038039;28;20042;-45
2023/09/05 02:39:31;;;;;;;8.02;7.22;;;14.40;92.20;;;;;;5034913;28;20068;-44
2023/09/05 02:41:58;;;;;;;7.43;6.43;;;14.40;92.10;;;;;;5035171;28;20037;-44
2023/09/05 02:44:24;;;;;;;7.47;6.78;;;14.40;92.10;;;;;;5017500;28;20108;-45
2023/09/05 02:46:51;;;;;;;8.82;7.13;;;14.40;92.10;;;;;;5017764;28;20116;-46
2023/09/05 02:49:17;;;;;;;7.38;6.65;;;14.40;92.20;;;;;;5029496;28;20119;-44
2023/09/05 02:51:46;;;;;;;8.50;7.70;;;14.40;92.20;;;;;;5015180;28;20113;-44
2023/09/05 02:54:13;;;;;;;10.00;8.25;;;14.40;92.10;;;;;;5015020;28;20474;-46
2023/09/05 02:56:42;;;;;;;7.80;7.00;;;14.40;92.20;;;;;;4981578;28;20048;-44
2023/09/05 02:59:09;;;;;;;8.90;8.00;;;14.40;92.20;;;;;;5034304;28;20037;-48
2023/09/05 03:01:36;;;;;;;8.68;7.88;;;14.30;92.10;;;;;;5016312;28;20033;-46
2023/09/05 03:04:02;;;;;;;7.88;7.07;;;14.30;92.20;;;;;;5014747;28;20033;-45
2023/09/05 03:06:29;;;;;;;12.45;8.00;;;14.30;92.20;;;;;;4997423;28;20038;-44
2023/09/05 03:08:56;;;;;;;9.40;8.40;;;14.30;92.10;;;;;;5014887;28;20077;-45
2023/09/05 03:11:22;;;;;;;8.80;7.05;;;14.30;92.20;;;;;;5015311;28;20037;-44
2023/09/05 03:13:50;;;;;;;8.77;7.60;;;14.30;92.10;;;;;;5013392;28;20128;-45
2023/09/05 03:16:21;;;;;;;11.40;7.50;;;14.20;92.10;;;;;;5013331;28;20033;-46
2023/09/05 03:18:48;;;;;;;7.38;6.63;;;14.20;92.00;;;;;;5015231;28;20168;-49
2023/09/05 03:21:19;;;;;;;9.10;7.88;;;14.20;92.00;;;;;;4997175;28;20054;-44
2023/09/05 03:23:45;;;;;;;9.25;8.05;;;14.10;91.90;;;;;;5014348;28;20096;-43
2023/09/05 03:26:12;;;;;;;8.18;7.30;;;14.20;92.10;;;;;;5014141;28;20121;-43
2023/09/05 03:28:44;;;;;;;9.18;8.25;;;14.20;92.00;;;;;;5014460;28;20030;-46
2023/09/05 03:31:12;;;;;;;8.02;6.95;;;14.10;91.90;;;;;;5020953;28;20443;-44
2023/09/05 03:33:38;;;;;;;8.07;7.28;;;14.10;92.00;;;;;;5033914;28;20029;-46
2023/09/05 03:36:08;;;;;;;8.20;7.40;;;14.10;91.90;;;;;;5009631;28;20053;-46
2023/09/05 03:38:35;;;;;;;9.50;7.88;;;14.10;91.90;;;;;;5014221;28;20100;-46
2023/09/05 03:41:02;;;;;;;11.98;7.43;;;14.10;91.90;;;;;;5014288;28;20048;-45
2023/09/05 03:43:29;;;;;;;8.45;7.13;;;14.00;92.00;;;;;;5014237;28;20034;-43
2023/09/05 03:45:57;;;;;;;9.68;8.68;;;14.00;92.00;;;;;;4980567;28;20082;-44
2023/09/05 03:48:24;;;;;;;11.00;8.80;;;13.90;91.90;;;;;;5013915;28;20050;-44
2023/09/05 03:50:51;;;;;;;8.80;7.90;;;14.00;92.00;;;;;;5031902;28;20079;-46
2023/09/05 03:53:20;;;;;;;10.75;9.27;;;14.00;92.10;;;;;;5016144;28;20419;-46
2023/09/05 03:55:47;;;;;;;9.75;8.82;;;14.00;92.30;;;;;;5016410;28;20040;-45
2023/09/05 03:58:16;;;;;;;11.50;9.82;;;14.00;92.20;;;;;;5033648;28;20053;-45
2023/09/05 04:00:43;;;;;;;10.48;9.38;;;14.00;92.30;;;;;;5022075;28;20033;-45
2023/09/05 04:03:12;;;;;;;10.07;8.10;;;14.00;92.40;;;;;;5053370;28;20083;-44
2023/09/05 04:05:40;;;;;;;9.85;8.80;;;14.00;92.40;;;;;;5039046;28;20025;-46
2023/09/05 04:08:07;;;;;;;11.02;9.93;;;14.00;92.50;;;;;;5033349;28;20033;-45
2023/09/05 04:10:37;;;;;;;10.85;9.85;;;14.00;92.50;;;;;;5037656;28;20023;-43
2023/09/05 04:13:04;;;;;;;10.55;9.38;;;14.00;92.50;;;;;;5053772;28;20140;-47
2023/09/05 04:15:32;;;;;;;11.40;9.00;;;14.00;92.60;;;;;;5035054;28;20033;-46
2023/09/05 04:17:58;;;;;;;13.98;8.95;;;14.00;92.60;;;;;;5033405;28;20551;-44
2023/09/05 04:20:25;;;;;;;9.82;8.82;;;14.00;92.60;;;;;;5033518;28;20083;-47
2023/09/05 04:22:55;;;;;;;8.65;7.85;;;14.00;92.60;;;;;;5033055;28;20125;-44
2023/09/05 04:25:23;;;;;;;10.40;9.40;;;14.00;92.60;;;;;;5033132;28;20429;-46
2023/09/05 04:27:50;;;;;;;10.10;9.10;;;13.90;92.50;;;;;;5033516;28;20037;-43
2023/09/05 04:30:17;;;;;;;9.35;8.45;;;13.90;92.50;;;;;;5017869;28;20032;-43
2023/09/05 04:32:49;;;;;;;9.73;8.75;;;13.90;92.40;;;;;;5035271;28;20068;-47
2023/09/05 04:35:22;;;;;;;9.38;8.45;;;13.90;92.50;;;;;;5052876;28;20147;-46
2023/09/05 04:37:52;;;;;;;10.85;9.75;;;13.90;92.40;;;;;;5053235;28;20021;-49
2023/09/05 04:40:19;;;;;;;10.32;8.82;;;13.80;92.40;;;;;;5041167;28;20033;-48
2023/09/05 04:42:47;;;;;;;10.48;8.02;;;13.80;92.40;;;;;;5033048;28;20541;-46
2023/09/05 04:45:13;;;;;;;10.02;9.02;;;13.80;92.40;;;;;;5015455;28;20454;-45
2023/09/05 04:47:42;;;;;;;10.52;9.20;;;13.80;92.40;;;;;;5032866;28;20094;-49
2023/09/05 04:50:12;;;;;;;9.83;8.83;;;13.70;92.30;;;;;;5015169;28;20091;-50
2023/09/05 04:52:39;;;;;;;10.77;9.40;;;13.70;92.40;;;;;;5032738;28;20033;-44
2023/09/05 04:55:06;;;;;;;10.02;9.02;;;13.70;92.40;;;;;;5032714;28;20029;-45
2023/09/05 04:57:36;;;;;;;9.73;8.52;;;13.70;92.40;;;;;;5015488;28;20116;-44
2023/09/05 05:00:04;;;;;;;10.35;8.63;;;13.70;92.30;;;;;;5032176;28;20159;-49
2023/09/05 05:02:33;;;;;;;9.65;8.75;;;13.70;92.40;;;;;;5015293;28;20075;-43
2023/09/05 05:05:00;;;;;;;9.98;8.93;;;13.70;92.30;;;;;;5015204;28;20030;-50
2023/09/05 05:07:27;;;;;;;10.32;8.50;;;13.70;92.40;;;;;;5032536;28;20041;-43
2023/09/05 05:09:57;;;;;;;9.80;8.90;;;13.70;92.40;;;;;;5032486;28;20030;-45
2023/09/05 05:12:24;;;;;;;10.73;9.63;;;13.70;92.40;;;;;;5032444;28;20104;-46
2023/09/05 05:14:51;;;;;;;10.40;8.52;;;13.70;92.30;;;;;;5032429;28;20159;-46
2023/09/05 05:17:21;;;;;;;10.55;9.45;;;13.70;92.40;;;;;;5032559;28;20059;-45
2023/09/05 05:19:48;;;;;;;11.07;9.82;;;13.70;92.40;;;;;;5015385;28;20029;-45
2023/09/05 05:22:15;;;;;;;10.55;9.13;;;13.70;92.40;;;;;;5015206;28;20065;-46
2023/09/05 05:24:40;;;;;;;9.65;8.70;;;13.80;92.60;;;;;;5015362;28;20398;-45
2023/09/05 05:27:07;;;;;;;11.27;9.80;;;13.80;92.50;;;;;;5032652;28;20029;-45
2023/09/05 05:29:34;;;;;;;9.32;8.43;;;13.80;92.50;;;;;;5032573;28;20029;-48
2023/09/05 05:32:04;;;;;;;10.35;8.93;;;13.80;92.60;;;;;;5032133;28;20120;-48
2023/09/05 05:34:32;;;;;;;10.45;9.35;;;13.80;92.70;;;;;;5032059;28;20026;-46
2023/09/05 05:36:59;;;;;;;10.43;9.43;;;13.90;92.60;;;;;;5032292;28;20439;-43
2023/09/05 05:39:26;;;;;;;10.55;9.02;;;13.90;92.70;;;;;;5032340;28;20029;-44
2023/09/05 05:41:55;;;;;;;11.55;9.20;;;13.90;92.60;;;;;;5032450;28;20029;-46
2023/09/05 05:44:22;;;;;;;8.95;8.15;;;13.90;92.70;;;;;;5015285;28;20033;-43
2023/09/05 05:46:49;;;;;;;9.80;8.90;;;13.90;92.80;;;;;;5031904;28;20370;-44
2023/09/05 05:49:19;;;;;;;10.35;9.25;;;13.90;92.80;;;;;;5045001;28;20042;-48
2023/09/05 05:51:50;;;;;;;10.98;9.35;;;13.90;92.80;;;;;;5032381;28;20351;-49
2023/09/05 05:54:21;;;;;;;10.05;9.15;;;14.00;92.80;;;;;;4996042;28;20362;-45
2023/09/05 05:56:53;;;;;;;9.27;8.45;;;14.00;92.90;;;;;;5011962;28;20033;-45
2023/09/05 05:59:20;;;;;;;10.43;9.30;;;14.00;93.00;;;;;;5012341;28;20044;-45
2023/09/05 06:01:51;;;;;;;10.70;8.90;;;14.10;93.20;;;;;;5012357;28;20030;-45
2023/09/05 06:04:18;;;;;;;13.07;10.52;;;14.20;93.20;;;;;;5012501;28;20461;-44
2023/09/05 06:06:52;;;;;;;12.90;10.07;;;14.20;93.30;;;;;;5012400;28;20026;-45
2023/09/05 06:09:19;;;;;;;10.50;9.50;;;14.30;93.40;;;;;;4995115;28;20019;-47
2023/09/05 06:11:46;;;;;;;11.45;10.23;;;14.30;93.50;;;;;;5015314;28;20025;-47
2023/09/05 06:14:14;;;;;;;10.23;9.23;;;14.40;93.50;;;;;;4998641;28;20018;-47
2023/09/05 06:16:46;;;;;;;10.48;9.43;;;14.40;93.60;;;;;;5016224;28;20034;-47
2023/09/05 06:19:14;;;;;;;10.52;9.52;;;14.40;93.60;;;;;;5016239;28;20094;-44
2023/09/05 06:21:45;;;;;;;10.70;9.60;;;14.60;93.70;;;;;;4998740;28;20281;-48
2023/09/05 06:24:16;;;;;;;11.38;10.18;;;14.60;93.70;;;;;;5016024;28;20034;-44
2023/09/05 06:26:44;;;;;;;11.18;9.63;;;14.70;93.80;;;;;;4998356;28;20049;-44
2023/09/05 06:29:11;;;;;;;11.27;10.18;;;14.80;93.90;;;;;;5016002;28;20033;-47
2023/09/05 06:31:38;;;;;;;10.85;9.52;;;14.80;94.00;;;;;;5015993;28;20026;-47
2023/09/05 06:34:05;;;;;;;9.77;8.77;;;15.00;94.10;;;;;;5016023;28;20597;-47
2023/09/05 06:36:32;;;;;;;11.32;9.25;;;15.00;94.10;;;;;;5019461;28;20041;-45
2023/09/05 06:38:58;;;;;;;10.98;9.50;;;15.10;94.10;;;;;;5035518;28;20029;-46
2023/09/05 06:41:25;;;;;;;10.57;9.45;;;15.20;94.20;;;;;;5035581;28;20033;-45
2023/09/05 06:43:54;;;;;;;13.10;9.95;;;15.30;94.30;;;;;;5009582;28;20038;-49
2023/09/05 06:46:22;;;;;;;12.40;10.63;;;15.40;94.40;;;;;;5015553;28;20050;-46
2023/09/05 06:48:50;;;;;;;10.77;9.70;;;15.50;94.50;;;;;;5016018;28;20400;-46
2023/09/05 06:51:17;;;;;;;10.98;9.60;;;15.60;94.50;;;;;;5015586;28;20563;-44
2023/09/05 06:53:44;;;;;;;12.45;9.60;;;15.70;94.50;;;;;;5015553;28;20025;-44
2023/09/05 06:56:10;;;;;;;10.65;9.07;;;15.80;94.50;;;;;;5015475;28;20344;-44
2023/09/05 06:58:39;;;;;;;14.52;11.60;;;15.90;94.50;;;;;;5015640;28;20431;-50
2023/09/05 07:01:05;;;;;;;15.15;12.48;;;16.00;94.40;;;;;;5015082;28;20370;-46
2023/09/05 07:03:32;;;;;;;13.95;10.40;;;16.10;94.30;;;;;;5035864;28;20032;-46
2023/09/05 07:06:03;;;;;;;10.73;9.73;;;16.20;94.00;;;;;;5017461;28;20103;-45
2023/09/05 07:08:32;;;;;;;11.00;9.13;;;16.30;93.90;;;;;;5019819;28;20026;-45
2023/09/05 07:10:59;;;;;;;9.52;8.57;;;16.40;93.70;;;;;;5015321;28;20030;-47
2023/09/05 07:13:26;;;;;;;11.98;9.52;;;16.40;93.50;;;;;;4997802;28;20034;-47
2023/09/05 07:15:57;;;;;;;10.70;9.60;;;16.50;93.40;;;;;;5015337;28;20125;-47
2023/09/05 07:18:24;;;;;;;9.77;8.63;;;16.70;93.10;;;;;;5015118;28;20113;-45
2023/09/05 07:20:51;;;;;;;8.23;7.40;;;16.70;92.80;;;;;;5015056;28;22094;-43
2023/09/05 07:23:18;;;;;;;9.02;7.75;;;16.70;92.70;;;;;;5014077;28;20467;-43
2023/09/05 07:25:44;;;;;;;10.27;9.18;;;16.80;92.70;;;;;;5014761;28;20117;-44
2023/09/05 07:28:11;;;;;;;9.20;8.27;;;16.90;92.60;;;;;;4997388;28;20117;-44
2023/09/05 07:30:39;;;;;;;8.65;7.75;;;17.00;92.40;;;;;;5015285;28;20385;-44
2023/09/05 07:33:06;;;;;;;10.68;7.63;;;17.10;92.40;;;;;;4997558;28;20535;-48
2023/09/05 07:35:32;;;;;;;9.18;8.27;;;17.20;92.40;;;;;;4997266;28;20030;-46
2023/09/05 07:37:59;;;;;;;8.77;7.88;;;17.40;92.30;;;;;;5015122;28;20030;-46
2023/09/05 07:40:26;;;;;;;12.40;7.97;;;17.50;92.30;;;;;;5014738;28;20025;-45
2023/09/05 07:42:53;;;;;;;9.48;7.90;;;17.80;92.10;;;;;;4997023;28;20370;-43
2023/09/05 07:45:24;;;;;;;10.05;7.40;;;18.00;91.10;;;;;;5014924;28;20098;-48
2023/09/05 07:47:51;;;;;;;9.98;6.25;;;18.20;90.40;;;;;;4997390;28;20033;-44
2023/09/05 07:50:19;;;;;;;7.60;6.80;;;18.40;89.60;;;;;;5009955;28;20037;-46
2023/09/05 07:52:47;;;;;;;8.52;6.60;;;18.60;89.40;;;;;;5032889;28;20450;-47
2023/09/05 07:55:13;;;;;;;7.40;6.55;;;18.90;89.30;;;;;;5034232;28;20021;-47
2023/09/05 07:57:40;;;;;;;6.75;5.78;;;19.10;88.80;;;;;;5034593;28;20353;-52
2023/09/05 08:00:11;;;;;;;7.32;5.03;;;19.40;88.30;;;;;;5016686;28;20372;-50
2023/09/05 08:02:38;;;;;;;6.90;5.00;;;19.70;86.40;;;;;;5016568;28;20034;-47
2023/09/05 08:05:05;;;;;;;8.07;5.13;;;19.90;84.80;;;;;;5048446;28;20036;-50
2023/09/05 08:07:32;;;;;;;7.07;5.45;;;20.20;84.30;;;;;;5053331;28;20043;-52
2023/09/05 08:10:02;;;;;;;8.27;5.18;;;20.50;83.20;;;;;;5053498;28;20019;-50
2023/09/05 08:12:31;;;;;;;6.55;4.40;;;20.80;82.90;;;;;;5041288;28;20048;-54
2023/09/05 08:14:58;;;;;;;7.57;4.72;;;21.00;81.20;;;;;;5033143;28;20029;-54
2023/09/05 08:17:27;;;;;;;6.60;4.72;;;21.40;81.40;;;;;;5033533;28;20479;-53
2023/09/05 08:19:54;;;;;;;6.38;4.43;;;21.60;79.50;;;;;;5033453;28;20399;-49
2023/09/05 08:22:20;;;;;;;5.60;4.25;;;21.90;80.00;;;;;;5033735;28;20060;-51
2023/09/05 08:24:46;;;;;;;9.00;4.95;;;22.10;78.30;;;;;;5018940;28;20357;-54
2023/09/05 08:27:13;;;;;;;6.72;4.40;;;22.30;76.80;;;;;;5035797;28;20033;-54
2023/09/05 08:29:41;;;;;;;7.82;4.13;;;22.50;75.60;;;;;;5053936;28;20052;-53
2023/09/05 08:32:11;;;;;;;8.77;4.07;;;22.80;76.20;;;;;;5026147;28;20031;-55
2023/09/05 08:34:41;;;;;;;6.50;4.50;;;23.00;75.40;;;;;;5033168;28;20013;-50
2023/09/05 08:37:07;;;;;;;5.65;4.43;;;23.10;71.60;;;;;;5015419;28;20064;-53
2023/09/05 08:39:34;;;;;;;5.88;4.20;;;23.20;72.40;;;;;;5033084;28;20145;-52
2023/09/05 08:42:05;;;;;;;6.25;4.20;;;23.40;71.80;;;;;;5015466;28;20404;-53
2023/09/05 08:44:37;;;;;;;5.40;4.05;;;23.60;74.20;;;;;;5033374;28;20096;-51
2023/09/05 08:47:05;;;;;;;11.75;5.45;;;23.60;71.40;;;;;;5032739;28;20553;-52
2023/09/05 08:49:31;;;;;;;5.43;4.38;;;23.70;70.50;;;;;;5032243;28;20335;-54
2023/09/05 08:52:05;;;;;;;8.77;4.05;;;23.90;72.10;;;;;;5032674;28;20044;-52
2023/09/05 08:54:35;;;;;;;5.45;3.92;;;24.00;71.90;;;;;;5032615;28;20112;-51
2023/09/05 08:57:04;;;;;;;5.00;3.45;;;24.00;69.80;;;;;;5032457;28;20146;-55
2023/09/05 08:59:32;;;;;;;4.90;3.65;;;24.20;71.50;;;;;;5032656;28;20037;-53
2023/09/05 09:02:00;;;;;;;8.35;3.88;;;24.30;70.10;;;;;;5014674;28;20098;-52
2023/09/05 09:04:29;;;;;;;6.20;3.60;;;24.40;69.90;;;;;;5032604;28;20128;-51
2023/09/05 09:07:00;;;;;;;6.53;3.65;;;24.60;72.00;;;;;;5045303;28;20121;-56
2023/09/05 09:09:39;;;;;;;6.88;3.55;;;24.60;71.60;;;;;;5049997;28;20068;-51
2023/09/05 09:12:06;;;;;;;6.32;3.22;;;24.80;69.50;;;;;;5051806;28;20036;-54
2023/09/05 09:14:35;;;;;;;4.82;3.53;;;24.90;69.50;;;;;;5051019;28;20021;-54
2023/09/05 09:17:07;;;;;;;8.38;3.13;;;25.00;68.10;;;;;;5051374;28;20029;-52
2023/09/05 09:19:37;;;;;;;10.25;4.50;;;25.10;69.70;;;;;;5051770;28;20044;-56
2023/09/05 09:22:08;;;;;;;9.20;5.28;;;25.40;69.50;;;;;;5045589;28;20462;-53
2023/09/05 09:24:36;;;;;;;8.13;5.55;;;25.40;71.50;;;;;;5031921;28;20084;-56
2023/09/05 09:27:05;;;;;;;7.32;4.22;;;25.40;72.70;;;;;;5047692;28;20121;-53
2023/09/05 09:29:33;;;;;;;7.35;4.55;;;25.40;72.10;;;;;;5031920;28;20112;-54
2023/09/05 09:32:03;;;;;;;8.20;4.97;;;25.40;68.10;;;;;;5031976;28;20029;-54
2023/09/05 09:34:31;;;;;;;7.32;4.47;;;25.40;73.00;;;;;;5031245;28;20029;-53
2023/09/05 09:36:58;;;;;;;6.43;4.47;;;25.60;69.30;;;;;;5032842;28;20056;-55
2023/09/05 09:39:27;;;;;;;6.72;3.95;;;25.80;70.90;;;;;;5032260;28;20056;-56
2023/09/05 09:41:58;;;;;;;6.78;4.35;;;25.80;70.00;;;;;;5031898;28;20072;-55
2023/09/05 09:44:44;;;;;;;5.75;3.17;;;25.80;70.30;;;;;;5047517;28;20037;-54
2023/09/05 09:47:10;;;;;;;6.78;3.70;;;25.90;65.00;;;;;;5051461;28;20041;-55
2023/09/05 09:49:45;;;;;;;9.80;3.65;;;25.90;67.80;;;;;;5067476;28;20055;-53
2023/09/05 09:52:17;;;;;;;7.03;3.97;;;26.10;69.50;;;;;;5047736;28;20088;-55
2023/09/05 09:54:51;;;;;;;7.30;3.38;;;26.10;65.60;;;;;;5032038;28;20028;-56
2023/09/05 09:57:41;;;;;;;6.20;3.00;;;26.10;63.90;;;;;;5032023;28;20025;-56
2023/09/05 10:00:15;;;;;;;6.32;3.25;;;26.00;64.50;;;;;;5032349;28;20025;-57
2023/09/05 10:02:46;;;;;;;5.05;3.55;;;26.00;63.80;;;;;;5031072;28;20109;-57
2023/09/05 10:05:15;;;;;;;7.93;3.65;;;26.10;65.50;;;;;;5031591;28;20043;-54
2023/09/05 10:07:46;;;;;;;7.33;4.03;;;26.20;66.90;;;;;;5031338;28;20072;-57
2023/09/05 10:10:15;;;;;;;11.52;4.38;;;26.10;67.90;;;;;;5031808;28;20116;-56
2023/09/05 10:12:46;;;;;;;5.97;4.18;;;26.20;68.50;;;;;;5031807;28;20034;-57
2023/09/05 10:15:18;;;;;;;6.78;4.32;;;26.30;69.00;;;;;;5039548;28;20024;-57
2023/09/05 10:17:46;;;;;;;6.82;3.85;;;26.20;69.30;;;;;;5051068;28;20045;-52
2023/09/05 10:20:19;;;;;;;6.18;3.67;;;26.20;69.10;;;;;;5042760;28;20384;-56
2023/09/05 10:22:46;;;;;;;6.40;4.05;;;26.30;69.10;;;;;;5031864;28;20104;-57
2023/09/05 10:25:16;;;;;;;7.15;3.83;;;26.20;68.20;;;;;;5031224;28;20040;-57
2023/09/05 10:27:46;;;;;;;7.53;3.75;;;26.10;68.20;;;;;;5030507;28;20084;-57
2023/09/05 10:30:15;;;;;;;7.65;3.58;;;26.20;68.00;;;;;;5030591;28;20152;-55
2023/09/05 10:32:46;;;;;;;7.07;4.93;;;26.30;69.20;;;;;;5031145;28;20030;-54
2023/09/05 10:35:22;;;;;;;8.43;4.60;;;26.30;69.50;;;;;;5031248;28;20033;-55
2023/09/05 10:38:05;;;;;;;6.32;3.85;;;26.40;67.80;;;;;;5030176;28;20109;-57
2023/09/05 10:40:50;;;;;;;6.85;4.22;;;26.40;70.40;;;;;;5031395;28;20025;-55
2023/09/05 10:43:20;;;;;;;7.60;3.85;;;26.40;67.40;;;;;;5031480;28;20029;-56
2023/09/05 10:46:00;;;;;;;8.18;3.90;;;26.40;67.40;;;;;;5030847;28;20032;-57
2023/09/05 10:48:40;;;;;;;5.40;3.97;;;26.50;69.90;;;;;;5014544;28;20423;-57
2023/09/05 10:51:24;;;;;;;;;;;26.40;67.70;;;;;;5050423;28;20467;-57
2023/09/05 10:53:51;;;;;;;4.65;3.22;;;26.20;69.00;;;;;;5051039;28;19913;-58
2023/09/05 10:56:45;;;;;;;7.15;3.58;;;26.20;67.90;;;;;;5051263;28;20212;-58
2023/09/05 10:59:29;;;;;;;6.90;3.88;;;26.20;69.10;;;;;;5054633;28;20032;-58
2023/09/05 11:02:01;;;;;;;7.00;3.53;;;26.20;69.40;;;;;;5070675;28;20055;-56
2023/09/05 11:04:30;;;;;;;6.63;2.88;;;26.30;69.40;;;;;;5074706;28;20024;-56
2023/09/05 11:07:06;;;;;;;6.10;3.35;;;26.40;67.30;;;;;;5057446;28;20587;-58
2023/09/05 11:09:49;;;;;;;6.18;3.45;;;26.30;64.10;;;;;;5053085;28;20442;-55
2023/09/05 11:12:17;;;;;;;6.72;3.22;;;26.40;67.50;;;;;;5054774;28;20107;-57
2023/09/05 11:14:44;;;;;;;5.82;3.53;;;26.30;65.40;;;;;;5020746;28;20032;-57
2023/09/05 11:17:17;;;;;;;5.70;3.45;;;26.10;66.00;;;;;;5054160;28;20060;-57
2023/09/05 11:19:51;;;;;;;5.32;3.00;;;26.30;66.70;;;;;;5036571;28;20048;-57
2023/09/05 11:22:22;;;;;;;5.35;3.03;;;26.30;67.40;;;;;;5054334;28;20337;-57
2023/09/05 11:24:58;;;;;;;4.50;2.20;;;26.40;66.90;;;;;;5054046;28;20029;-57
2023/09/05 11:27:27;;;;;;;6.32;2.90;;;26.50;67.40;;;;;;5054179;28;20331;-58
2023/09/05 11:29:58;;;;;;;4.38;2.85;;;26.60;66.90;;;;;;5054190;28;20025;-52
2023/09/05 11:32:35;;;;;;;5.10;3.25;;;26.70;65.50;;;;;;5067787;28;20094;-57
2023/09/05 11:35:05;;;;;;;3.75;2.55;;;26.70;66.90;;;;;;5073911;28;20055;-57
2023/09/05 11:37:31;;;;;;;5.95;2.72;;;26.70;65.00;;;;;;5056113;28;20079;-56
2023/09/05 11:40:09;;;;;;;4.60;2.72;;;26.80;66.20;;;;;;5053883;28;20450;-57
2023/09/05 11:42:36;;;;;;;6.85;2.22;;;26.90;64.00;;;;;;5053983;28;20476;-57
2023/09/05 11:45:14;;;;;;;6.35;3.08;;;26.80;64.50;;;;;;5053644;28;20017;-57
2023/09/05 11:47:42;;;;;;;5.85;3.03;;;26.80;64.10;;;;;;5035960;28;20029;-58
2023/09/05 11:50:08;;;;;;;4.55;2.35;;;26.70;63.60;;;;;;5053393;28;20033;-55
2023/09/05 11:52:40;;;;;;;4.20;2.88;;;26.60;64.30;;;;;;5053734;28;20021;-57
2023/09/05 11:55:09;;;;;;;6.68;2.95;;;26.60;63.30;;;;;;5054030;28;20024;-58
2023/09/05 11:57:39;;;;;;;5.32;3.08;;;26.40;62.80;;;;;;5053302;28;20480;-57
2023/09/05 12:00:17;;;;;;;7.30;3.35;;;26.40;64.30;;;;;;5053785;28;20120;-56
2023/09/05 12:02:44;;;;;;;7.53;3.40;;;26.30;66.30;;;;;;5037359;28;20037;-56
2023/09/05 12:05:13;;;;;;;4.13;2.85;;;26.40;67.80;;;;;;5035438;28;20025;-56
2023/09/05 12:07:50;;;;;;;9.57;3.20;;;26.40;64.90;;;;;;5034928;28;20098;-55
2023/09/05 12:10:17;;;;;;;7.30;4.43;;;26.40;65.00;;;;;;5053108;28;20078;-57
2023/09/05 12:13:04;;;;;;;9.98;4.72;;;26.40;69.00;;;;;;5052904;28;20082;-58
2023/09/05 12:15:37;;;;;;;10.05;5.97;;;26.30;69.60;;;;;;5053372;28;20104;-58
2023/09/05 12:18:08;;;;;;;10.32;7.28;;;26.20;70.50;;;;;;5034477;28;20090;-56
2023/09/05 12:20:35;;;;;;;18.02;8.63;;;26.10;72.00;;;;;;5052673;28;20048;-57
2023/09/05 12:23:02;;;;;;;11.75;9.27;;;25.90;71.40;;;;;;5051785;28;20028;-54
2023/09/05 12:25:29;;;;;;;18.83;9.35;;;25.70;70.40;;;;;;5052770;28;20446;-57
2023/09/05 12:28:17;;;;;;;12.50;8.82;;;25.70;72.60;;;;;;5052632;28;20485;-57
2023/09/05 12:30:44;;;;;;;13.50;7.88;;;25.70;73.30;;;;;;5051746;28;20021;-58
2023/09/05 12:33:11;;;;;;;9.50;8.50;;;25.60;73.20;;;;;;5052772;28;20036;-54
2023/09/05 12:35:40;;;;;;;11.32;8.07;;;25.40;72.40;;;;;;5052349;28;20122;-53
2023/09/05 12:38:07;;;;;;;9.38;7.20;;;25.40;72.80;;;;;;5052599;28;20021;-57
2023/09/05 12:40:34;;;;;;;9.73;8.02;;;25.30;74.10;;;;;;5071196;28;20036;-55
2023/09/05 12:43:08;;;;;;;9.13;7.80;;;25.10;72.80;;;;;;5072611;28;20025;-53
2023/09/05 12:45:37;;;;;;;11.25;8.73;;;25.00;74.00;;;;;;5069354;28;20482;-57
2023/09/05 12:48:07;;;;;;;8.30;7.38;;;24.70;73.10;;;;;;5052406;28;20041;-56
2023/09/05 12:50:37;;;;;;;8.65;6.50;;;24.50;73.80;;;;;;5037930;28;20038;-57
2023/09/05 12:53:21;;;;;;;12.68;7.28;;;24.40;74.50;;;;;;5032540;28;20393;-56